createdAt,value
2022-08-27T00:00:44.977Z,59.01
2022-08-27T00:03:19.418Z,59.19
2022-08-27T00:05:52.859Z,58.89
2022-08-27T00:19:03.126Z,59.27
2022-08-27T00:21:43.419Z,59.17
2022-08-27T00:24:17.437Z,59.15
2022-08-27T00:26:51.481Z,59.23
2022-08-27T00:29:25.487Z,59.45
2022-08-27T00:31:59.478Z,59.13
2022-08-27T00:34:35.081Z,59.27
2022-08-27T00:47:30.379Z,60.07
2022-08-27T00:50:21.639Z,59.68
2022-08-27T00:53:01.994Z,59.50
2022-08-27T00:55:55.441Z,59.79
2022-08-27T00:58:33.620Z,59.65
2022-08-27T01:14:56.419Z,60.21
2022-08-27T01:17:31.057Z,60.29
2022-08-27T01:20:11.420Z,60.38
2022-08-27T01:22:58.902Z,60.36
2022-08-27T01:25:41.453Z,60.49
2022-08-27T01:39:15.399Z,60.24
2022-08-27T01:41:52.442Z,60.38
2022-08-27T01:44:32.460Z,60.62
2022-08-27T01:47:06.069Z,60.68
2022-08-27T01:49:40.579Z,60.58
2022-08-27T01:52:17.379Z,60.66
2022-08-27T01:54:59.640Z,60.64
2022-08-27T02:08:13.419Z,60.83
2022-08-27T02:10:49.799Z,60.94
2022-08-27T02:13:30.440Z,60.76
2022-08-27T02:16:04.393Z,61.03
2022-08-27T02:18:38.419Z,61.08
2022-08-27T02:32:37.438Z,61.15
2022-08-27T02:35:13.419Z,61.23
2022-08-27T02:37:51.437Z,60.76
2022-08-27T02:40:26.885Z,60.81
2022-08-27T02:43:00.425Z,61.10
2022-08-27T02:45:35.534Z,60.99
2022-08-27T03:01:51.517Z,61.56
2022-08-27T03:04:25.940Z,61.61
2022-08-27T03:06:59.437Z,61.61
2022-08-27T03:09:33.985Z,61.40
2022-08-27T03:12:08.458Z,61.19
2022-08-27T03:14:42.025Z,61.07
2022-08-27T03:27:32.362Z,61.41
2022-08-27T03:30:29.442Z,61.50
2022-08-27T03:33:03.102Z,61.24
2022-08-27T03:35:37.442Z,61.67
2022-08-27T03:38:11.210Z,61.34
2022-08-27T03:40:45.423Z,61.40
2022-08-27T03:53:57.492Z,61.63
2022-08-27T03:56:30.924Z,61.58
2022-08-27T03:59:06.690Z,61.42
2022-08-27T04:01:40.958Z,61.80
2022-08-27T04:04:14.510Z,61.51
2022-08-27T04:06:47.983Z,61.79
2022-08-27T04:09:24.462Z,61.52
2022-08-27T04:19:44.362Z,61.74
2022-08-27T04:22:25.423Z,61.72
2022-08-27T04:25:01.223Z,61.84
2022-08-27T04:27:35.462Z,61.76
2022-08-27T04:30:09.895Z,61.63
2022-08-27T04:32:43.524Z,61.77
2022-08-27T04:35:17.199Z,61.64
2022-08-27T04:48:07.440Z,61.72
2022-08-27T04:50:48.462Z,62.10
2022-08-27T04:53:23.324Z,61.88
2022-08-27T04:56:00.423Z,62.18
2022-08-27T04:58:34.082Z,62.11
2022-08-27T05:14:21.422Z,62.12
2022-08-27T05:16:54.883Z,61.93
2022-08-27T05:19:28.425Z,62.21
2022-08-27T05:22:02.402Z,61.99
2022-08-27T05:24:36.402Z,62.33
2022-08-27T05:27:10.171Z,62.45
2022-08-27T05:29:55.382Z,62.41
2022-08-27T05:40:00.471Z,62.36
2022-08-27T05:42:40.470Z,62.35
2022-08-27T05:45:16.103Z,62.11
2022-08-27T05:47:49.423Z,62.64
2022-08-27T05:50:23.777Z,62.75
2022-08-27T05:52:57.425Z,62.48
2022-08-27T05:55:36.983Z,62.27
2022-08-27T06:08:34.383Z,62.35
2022-08-27T06:11:14.422Z,62.82
2022-08-27T06:13:48.823Z,62.65
2022-08-27T06:16:24.402Z,62.88
2022-08-27T06:18:58.212Z,62.80
2022-08-27T06:35:14.543Z,62.75
2022-08-27T06:37:48.282Z,62.23
2022-08-27T06:40:22.550Z,62.66
2022-08-27T06:42:56.243Z,62.74
2022-08-27T06:45:30.484Z,62.19
2022-08-27T06:48:05.122Z,62.23
2022-08-27T06:50:47.580Z,62.23
2022-08-27T07:00:32.399Z,63.20
2022-08-27T07:03:15.625Z,63.57
2022-08-27T07:05:52.686Z,63.53
2022-08-27T07:08:36.118Z,64.03
2022-08-27T07:11:13.655Z,63.91
2022-08-27T07:13:56.507Z,63.88
2022-08-27T07:27:08.423Z,64.15
2022-08-27T07:29:41.963Z,64.03
2022-08-27T07:32:15.451Z,63.91
2022-08-27T07:34:48.942Z,64.11
2022-08-27T07:37:22.454Z,64.30
2022-08-27T07:39:58.252Z,63.59
2022-08-27T07:56:15.444Z,63.95
2022-08-27T07:58:49.662Z,64.09
2022-08-27T08:01:24.494Z,64.34
2022-08-27T08:03:57.949Z,63.87
2022-08-27T08:06:32.422Z,65.29
2022-08-27T08:09:08.062Z,64.92
2022-08-27T08:22:13.382Z,64.45
2022-08-27T08:24:53.463Z,64.19
2022-08-27T08:27:27.284Z,64.54
2022-08-27T08:30:01.429Z,64.53
2022-08-27T08:32:35.350Z,64.15
2022-08-27T08:35:10.443Z,64.00
2022-08-27T08:48:28.425Z,64.09
2022-08-27T08:51:12.282Z,64.52
2022-08-27T08:54:00.402Z,64.18
2022-08-27T08:56:52.969Z,63.97
2022-08-27T08:59:41.423Z,64.07
2022-08-27T09:16:20.007Z,63.64
2022-08-27T09:19:01.422Z,62.67
2022-08-27T09:21:51.483Z,62.74
2022-08-27T09:24:47.442Z,62.92
2022-08-27T09:27:22.304Z,63.09
2022-08-27T09:30:00.463Z,62.37
2022-08-27T09:43:28.477Z,61.94
2022-08-27T09:46:21.377Z,62.37
2022-08-27T09:49:02.424Z,61.97
2022-08-27T09:51:42.443Z,62.09
2022-08-27T09:54:46.442Z,62.23
2022-08-27T10:08:06.682Z,62.53
2022-08-27T10:10:53.724Z,62.27
2022-08-27T10:13:46.605Z,62.92
2022-08-27T10:16:48.367Z,62.97
2022-08-27T10:19:52.467Z,62.97
2022-08-27T10:36:46.403Z,63.06
2022-08-27T10:39:54.616Z,63.19
2022-08-27T10:42:38.682Z,63.16
2022-08-27T10:45:31.579Z,63.61
2022-08-27T10:48:21.562Z,62.02
2022-08-27T10:51:16.441Z,63.65
2022-08-27T11:01:23.422Z,63.79
2022-08-27T11:04:11.401Z,63.22
2022-08-27T11:06:55.125Z,63.44
2022-08-27T11:09:45.443Z,63.45
2022-08-27T11:12:27.302Z,63.82
2022-08-27T11:15:18.310Z,63.65
2022-08-27T11:28:41.442Z,63.77
2022-08-27T11:31:25.213Z,63.32
2022-08-27T11:34:16.437Z,63.42
2022-08-27T11:37:25.864Z,63.81
2022-08-27T11:40:40.455Z,63.95
2022-08-27T11:54:35.441Z,64.90
2022-08-27T11:57:27.927Z,64.89
2022-08-27T12:00:25.462Z,65.35
2022-08-27T12:03:02.266Z,65.33
2022-08-27T12:05:49.454Z,65.69
2022-08-27T12:08:32.504Z,66.17
2022-08-27T12:21:49.402Z,66.34
2022-08-27T12:24:56.462Z,66.71
2022-08-27T12:27:33.983Z,66.82
2022-08-27T12:30:37.442Z,66.40
2022-08-27T12:33:27.672Z,66.48
2022-08-27T12:36:18.614Z,66.32
2022-08-27T12:50:02.504Z,66.61
2022-08-27T12:53:07.922Z,66.84
2022-08-27T12:56:08.490Z,67.13
2022-08-27T12:59:02.602Z,66.91
2022-08-27T13:15:26.442Z,66.78
2022-08-27T13:18:03.093Z,67.26
2022-08-27T13:20:53.424Z,67.05
2022-08-27T13:23:28.245Z,67.33
2022-08-27T13:26:09.442Z,67.41
2022-08-27T13:28:44.646Z,67.06
2022-08-27T13:31:22.515Z,67.14
2022-08-27T20:05:17.065Z,65.90
2022-08-27T20:07:53.212Z,65.76
2022-08-27T20:10:36.049Z,65.71
2022-08-27T20:13:10.057Z,65.86
2022-08-27T20:15:44.453Z,66.15
2022-08-27T20:18:21.235Z,65.88
2022-08-27T20:20:56.395Z,65.79
2022-08-27T20:34:06.393Z,65.75
2022-08-27T20:36:43.169Z,65.73
2022-08-27T20:39:23.419Z,65.85
2022-08-27T20:41:56.826Z,65.80
2022-08-27T20:44:30.432Z,65.93
2022-08-27T21:01:08.451Z,66.43
2022-08-27T21:03:48.468Z,65.97
2022-08-27T21:06:26.607Z,66.11
2022-08-27T21:09:02.158Z,65.90
2022-08-27T21:11:35.934Z,66.26
2022-08-27T21:14:09.475Z,66.02
2022-08-27T21:27:23.437Z,65.74
2022-08-27T21:29:57.675Z,65.59
2022-08-27T21:32:31.436Z,65.73
2022-08-27T21:35:06.534Z,66.04
2022-08-27T21:37:41.474Z,65.87
2022-08-27T21:40:15.235Z,66.08
2022-08-27T21:53:05.434Z,66.01
2022-08-27T21:55:45.453Z,65.50
2022-08-27T21:58:22.321Z,65.98
2022-08-27T22:01:07.583Z,65.62
2022-08-27T22:03:44.153Z,65.68
2022-08-27T22:20:13.418Z,65.83
2022-08-27T22:22:46.997Z,65.73
2022-08-27T22:25:21.489Z,65.63
2022-08-27T22:27:55.438Z,65.62
2022-08-27T22:30:30.457Z,65.94
2022-08-27T22:33:04.278Z,65.57
2022-08-27T22:35:40.478Z,65.96
2022-08-27T22:48:50.480Z,66.01
2022-08-27T22:51:19.658Z,65.52
2022-08-27T22:54:00.457Z,65.87
2022-08-27T22:56:34.137Z,65.53
2022-08-27T22:59:08.479Z,65.67
2022-08-27T23:13:03.439Z,65.72
2022-08-27T23:15:39.900Z,65.76
2022-08-27T23:18:22.998Z,66.19
2022-08-27T23:20:57.018Z,65.86
2022-08-27T23:23:31.478Z,66.30
2022-08-27T23:26:05.838Z,65.97
2022-08-27T23:42:22.459Z,66.13
2022-08-27T23:44:55.962Z,66.60
2022-08-27T23:50:00.106Z,66.40
2022-08-27T23:52:27.278Z,66.40
2022-08-27T23:55:07.538Z,66.75
